createdAt,value
2017-12-30T00:00:24.103Z,4.87
2017-12-30T00:02:53.866Z,4.40
2017-12-30T00:05:22.177Z,3.60
2017-12-30T00:07:50.488Z,3.73
2017-12-30T00:10:19.982Z,5.23
2017-12-30T00:12:49.098Z,4.00
2017-12-30T00:15:17.367Z,4.10
2017-12-30T00:17:45.647Z,4.20
2017-12-30T00:20:14.744Z,3.93
2017-12-30T00:22:43.021Z,3.37
2017-12-30T00:25:12.047Z,2.97
2017-12-30T00:27:41.178Z,4.13
2017-12-30T00:30:10.607Z,3.33
2017-12-30T00:32:39.174Z,3.80
2017-12-30T00:35:08.614Z,4.07
2017-12-30T00:37:38.043Z,4.27
2017-12-30T00:40:06.388Z,4.23
2017-12-30T00:42:34.738Z,3.40
2017-12-30T00:45:03.034Z,3.73
2017-12-30T00:47:31.904Z,3.53
2017-12-30T00:50:00.246Z,3.20
2017-12-30T00:52:29.289Z,3.40
2017-12-30T00:54:58.815Z,4.30
2017-12-30T00:57:27.186Z,3.97
2017-12-30T01:00:45.858Z,3.47
2017-12-30T01:03:14.215Z,3.47
2017-12-30T01:05:43.814Z,5.00
2017-12-30T01:08:13.058Z,3.53
2017-12-30T01:10:41.349Z,4.30
2017-12-30T01:13:09.576Z,3.77
2017-12-30T01:15:37.831Z,3.97
2017-12-30T01:18:07.485Z,3.37
2017-12-30T01:20:36.348Z,4.50
2017-12-30T01:23:04.575Z,4.73
2017-12-30T01:25:33.651Z,3.67
2017-12-30T01:28:01.903Z,3.63
2017-12-30T01:30:30.149Z,4.73
2017-12-30T01:32:58.454Z,4.37
2017-12-30T01:35:26.729Z,4.00
2017-12-30T01:37:55.092Z,3.30
2017-12-30T01:40:23.369Z,3.17
2017-12-30T01:42:52.360Z,3.70
2017-12-30T01:45:20.642Z,4.03
2017-12-30T01:47:48.936Z,5.03
2017-12-30T01:50:17.924Z,3.53
2017-12-30T01:52:47.665Z,3.80
2017-12-30T01:55:17.180Z,5.40
2017-12-30T01:57:46.915Z,3.90
2017-12-30T02:00:15.160Z,4.67
2017-12-30T02:02:43.432Z,6.57
2017-12-30T02:05:12.491Z,4.53
2017-12-30T02:07:41.580Z,4.00
2017-12-30T02:10:09.864Z,4.47
2017-12-30T02:12:38.097Z,4.40
2017-12-30T02:15:06.361Z,4.47
2017-12-30T02:17:34.632Z,4.97
2017-12-30T02:20:02.877Z,4.60
2017-12-30T02:22:31.117Z,4.80
2017-12-30T02:24:59.424Z,5.93
2017-12-30T02:27:29.039Z,4.97
2017-12-30T02:29:58.322Z,4.37
2017-12-30T02:32:27.869Z,6.30
2017-12-30T02:34:57.114Z,4.80
2017-12-30T02:37:26.723Z,4.80
2017-12-30T02:39:54.882Z,4.17
2017-12-30T02:42:23.108Z,4.73
2017-12-30T02:44:51.332Z,4.57
2017-12-30T02:47:20.976Z,4.27
2017-12-30T02:49:49.481Z,5.20
2017-12-30T02:52:18.477Z,4.10
2017-12-30T02:54:46.821Z,4.80
2017-12-30T02:57:16.442Z,4.63
2017-12-30T02:59:44.700Z,4.23
2017-12-30T03:02:13.005Z,3.97
2017-12-30T03:04:42.037Z,4.13
2017-12-30T03:07:10.268Z,4.30
2017-12-30T03:09:40.060Z,3.93
2017-12-30T03:12:08.300Z,4.07
2017-12-30T03:14:37.897Z,4.37
2017-12-30T03:17:06.437Z,4.80
2017-12-30T03:19:35.437Z,7.63
2017-12-30T03:22:03.673Z,3.13
2017-12-30T03:24:33.097Z,5.00
2017-12-30T03:27:02.099Z,4.60
2017-12-30T03:29:31.139Z,3.63
2017-12-30T03:32:00.208Z,5.30
2017-12-30T03:34:28.456Z,5.00
2017-12-30T03:36:58.059Z,4.80
2017-12-30T03:39:26.236Z,3.57
2017-12-30T03:41:54.505Z,3.60
2017-12-30T03:44:23.160Z,4.37
2017-12-30T03:46:51.432Z,4.40
2017-12-30T03:49:21.169Z,4.07
2017-12-30T03:51:50.168Z,3.87
2017-12-30T03:54:18.444Z,3.60
2017-12-30T03:56:47.449Z,5.43
2017-12-30T03:59:16.463Z,5.10
2017-12-30T04:01:44.729Z,3.50
2017-12-30T04:04:12.957Z,3.97
2017-12-30T04:06:41.199Z,4.10
2017-12-30T04:09:09.465Z,4.00
2017-12-30T04:11:37.696Z,3.70
2017-12-30T04:14:07.279Z,3.90
2017-12-30T04:16:35.440Z,4.33
2017-12-30T04:19:03.673Z,6.80
2017-12-30T04:21:31.905Z,5.70
2017-12-30T04:24:00.602Z,5.10
2017-12-30T04:26:28.834Z,3.73
2017-12-30T04:28:57.889Z,4.80
2017-12-30T04:31:26.187Z,5.10
2017-12-30T04:33:55.237Z,3.97
2017-12-30T04:36:24.234Z,4.17
2017-12-30T04:38:52.500Z,4.27
2017-12-30T04:41:21.496Z,7.83
2017-12-30T04:43:49.728Z,6.53
2017-12-30T04:46:19.351Z,10.17
2017-12-30T04:48:48.595Z,8.50
2017-12-30T04:51:16.851Z,6.03
2017-12-30T04:53:45.136Z,7.37
2017-12-30T04:56:13.365Z,7.47
2017-12-30T04:58:41.596Z,6.47
2017-12-30T05:01:09.864Z,6.50
2017-12-30T05:03:38.092Z,8.50
2017-12-30T05:06:06.343Z,5.27
2017-12-30T05:08:34.623Z,5.20
2017-12-30T05:11:02.848Z,3.70
2017-12-30T05:13:33.212Z,4.17
2017-12-30T05:16:01.873Z,4.00
2017-12-30T05:18:30.127Z,5.30
2017-12-30T05:20:58.373Z,4.83
2017-12-30T05:23:28.154Z,4.97
2017-12-30T05:25:56.407Z,3.50
2017-12-30T05:28:24.644Z,4.90
2017-12-30T05:30:52.924Z,5.73
2017-12-30T05:33:21.171Z,4.90
2017-12-30T05:35:49.400Z,6.60
2017-12-30T05:38:17.699Z,7.63
2017-12-30T05:40:45.944Z,6.77
2017-12-30T05:43:14.196Z,7.20
2017-12-30T05:45:43.825Z,8.33
2017-12-30T05:48:11.955Z,7.93
2017-12-30T05:50:40.200Z,7.77
2017-12-30T05:53:08.464Z,9.17
2017-12-30T05:55:36.696Z,9.87
2017-12-30T05:58:04.939Z,9.83
2017-12-30T06:00:33.984Z,10.00
2017-12-30T06:03:02.236Z,11.30
2017-12-30T06:05:30.490Z,11.80
2017-12-30T06:07:58.829Z,17.40
2017-12-30T06:10:27.473Z,24.70
2017-12-30T06:12:56.488Z,12.10
2017-12-30T06:15:25.545Z,16.47
2017-12-30T06:17:53.804Z,33.13
2017-12-30T06:20:23.160Z,37.03
2017-12-30T06:22:51.428Z,23.53
2017-12-30T06:25:21.012Z,16.83
2017-12-30T06:27:49.883Z,22.50
2017-12-30T06:30:19.303Z,21.47
2017-12-30T06:32:48.307Z,28.40
2017-12-30T06:35:16.569Z,33.80
2017-12-30T06:37:45.630Z,28.43
2017-12-30T06:40:13.878Z,42.73
2017-12-30T06:42:42.123Z,21.10
2017-12-30T06:45:10.448Z,36.50
2017-12-30T06:47:38.684Z,40.77
2017-12-30T06:50:06.916Z,31.70
2017-12-30T06:52:35.183Z,30.17
2017-12-30T06:55:03.433Z,27.17
2017-12-30T06:57:31.664Z,31.50
2017-12-30T07:00:00.725Z,35.07
2017-12-30T07:02:28.969Z,39.63
2017-12-30T07:04:57.622Z,27.33
2017-12-30T07:07:27.071Z,40.67
2017-12-30T07:09:55.713Z,32.93
2017-12-30T07:12:23.956Z,30.10
2017-12-30T07:14:52.227Z,31.47
2017-12-30T07:17:21.243Z,30.27
2017-12-30T07:19:49.488Z,46.03
2017-12-30T07:22:17.795Z,50.23
2017-12-30T07:24:46.805Z,16.70
2017-12-30T07:27:15.812Z,30.83
2017-12-30T07:29:44.094Z,60.07
2017-12-30T07:32:13.865Z,34.40
2017-12-30T07:34:42.096Z,22.60
2017-12-30T07:37:10.371Z,24.97
2017-12-30T07:39:39.368Z,28.83
2017-12-30T07:42:07.640Z,16.93
2017-12-30T07:44:37.291Z,17.80
2017-12-30T07:47:05.401Z,25.47
2017-12-30T07:49:33.648Z,46.03
2017-12-30T07:52:01.925Z,29.23
2017-12-30T07:54:30.190Z,25.17
2017-12-30T07:56:59.197Z,51.70
2017-12-30T07:59:27.526Z,46.87
2017-12-30T08:01:55.760Z,45.63
2017-12-30T08:04:24.000Z,26.27
2017-12-30T08:06:53.412Z,33.37
2017-12-30T08:09:21.644Z,23.60
2017-12-30T08:11:50.667Z,32.50
2017-12-30T08:14:19.701Z,58.00
2017-12-30T08:16:47.969Z,23.73
2017-12-30T08:19:16.212Z,19.70
2017-12-30T08:21:44.504Z,11.60
2017-12-30T08:24:12.738Z,11.67
2017-12-30T08:26:41.372Z,16.30
2017-12-30T08:29:09.659Z,23.70
2017-12-30T08:31:37.888Z,27.53
2017-12-30T08:34:07.625Z,14.80
2017-12-30T08:36:36.683Z,14.77
2017-12-30T08:39:04.916Z,9.33
2017-12-30T08:41:33.152Z,29.27
2017-12-30T08:44:02.772Z,32.67
2017-12-30T08:46:31.287Z,15.60
2017-12-30T08:49:00.888Z,17.33
2017-12-30T08:51:29.458Z,14.20
2017-12-30T08:53:57.756Z,15.97
2017-12-30T08:56:26.013Z,15.27
2017-12-30T08:58:55.080Z,10.47
2017-12-30T09:01:24.096Z,33.17
2017-12-30T09:03:52.347Z,13.40
2017-12-30T09:06:20.669Z,14.07
2017-12-30T09:08:48.922Z,13.40
2017-12-30T09:11:17.152Z,17.70
2017-12-30T09:13:45.451Z,11.17
2017-12-30T09:16:13.734Z,9.80
2017-12-30T09:18:42.692Z,13.80
2017-12-30T09:21:10.962Z,26.03
2017-12-30T09:23:39.189Z,14.90
2017-12-30T09:26:07.420Z,18.47
2017-12-30T09:28:35.704Z,22.43
2017-12-30T09:31:05.448Z,33.73
2017-12-30T09:33:35.068Z,22.73
2017-12-30T09:36:03.600Z,10.47
2017-12-30T09:38:31.835Z,28.67
2017-12-30T09:41:00.112Z,13.47
2017-12-30T09:43:28.499Z,22.03
2017-12-30T09:45:56.771Z,9.97
2017-12-30T09:48:25.006Z,8.70
2017-12-30T09:50:54.783Z,9.97
2017-12-30T09:53:23.044Z,14.03
2017-12-30T09:55:51.272Z,35.40
2017-12-30T09:58:19.541Z,26.30
2017-12-30T10:00:49.127Z,22.57
2017-12-30T10:03:18.749Z,9.07
2017-12-30T10:05:47.051Z,8.10
2017-12-30T10:08:16.638Z,16.63
2017-12-30T10:10:45.165Z,13.60
2017-12-30T10:13:13.454Z,18.27
2017-12-30T10:15:41.691Z,10.87
2017-12-30T10:18:11.276Z,10.53
2017-12-30T10:20:39.435Z,8.80
2017-12-30T10:23:07.699Z,11.67
2017-12-30T10:25:36.715Z,9.23
2017-12-30T10:28:06.331Z,11.40
2017-12-30T10:30:34.476Z,8.70
2017-12-30T10:33:04.083Z,8.77
2017-12-30T10:35:32.996Z,9.23
2017-12-30T10:38:01.260Z,10.10
2017-12-30T10:40:30.859Z,11.30
2017-12-30T10:42:59.764Z,8.97
2017-12-30T10:45:28.771Z,9.53
2017-12-30T10:47:58.395Z,9.40
2017-12-30T10:50:26.956Z,11.47
2017-12-30T10:52:55.230Z,12.23
2017-12-30T10:55:23.468Z,12.20
2017-12-30T10:57:51.739Z,12.43
2017-12-30T11:00:19.996Z,11.27
2017-12-30T11:02:49.591Z,13.93
2017-12-30T11:05:17.880Z,12.63
2017-12-30T11:07:46.518Z,13.30
2017-12-30T11:10:14.760Z,13.20
2017-12-30T11:12:43.044Z,14.53
2017-12-30T11:15:12.443Z,14.50
2017-12-30T11:17:42.042Z,15.40
2017-12-30T11:20:11.560Z,14.60
2017-12-30T11:22:40.445Z,14.50
2017-12-30T11:25:09.445Z,16.10
2017-12-30T11:27:39.100Z,15.30
2017-12-30T11:30:08.782Z,13.47
2017-12-30T11:32:37.015Z,15.87
2017-12-30T11:35:05.293Z,14.13
2017-12-30T11:37:33.550Z,15.60
2017-12-30T11:40:03.176Z,15.87
2017-12-30T11:42:31.349Z,15.73
2017-12-30T11:44:59.621Z,17.33
2017-12-30T11:47:27.875Z,14.20
2017-12-30T11:49:56.172Z,14.30
2017-12-30T11:52:25.778Z,15.00
2017-12-30T11:54:54.311Z,16.40
2017-12-30T11:57:22.655Z,14.60
2017-12-30T11:59:50.851Z,16.23
2017-12-30T12:02:19.093Z,15.20
2017-12-30T12:04:47.369Z,17.37
2017-12-30T12:07:16.384Z,14.70
2017-12-30T12:09:44.801Z,16.40
2017-12-30T12:12:13.067Z,16.37
2017-12-30T12:14:42.820Z,14.47
2017-12-30T12:17:11.056Z,16.73
2017-12-30T12:19:39.334Z,16.70
2017-12-30T12:22:07.572Z,16.57
2017-12-30T12:24:35.846Z,14.50
2017-12-30T12:27:04.154Z,14.97
2017-12-30T12:29:32.406Z,17.80
2017-12-30T12:32:01.993Z,15.23
2017-12-30T12:34:30.162Z,14.00
2017-12-30T12:36:58.421Z,14.30
2017-12-30T12:39:28.029Z,15.03
2017-12-30T12:41:56.629Z,15.53
2017-12-30T12:44:24.870Z,17.77
2017-12-30T12:46:54.248Z,17.03
2017-12-30T12:49:22.528Z,14.93
2017-12-30T12:51:52.269Z,17.10
2017-12-30T12:54:20.505Z,15.00
2017-12-30T12:56:49.189Z,15.67
2017-12-30T12:59:17.437Z,14.63
2017-12-30T13:01:45.678Z,16.40
2017-12-30T13:04:15.142Z,16.50
2017-12-30T13:06:43.406Z,15.63
2017-12-30T13:09:11.640Z,14.97
2017-12-30T13:11:39.927Z,15.53
2017-12-30T13:14:08.181Z,20.20
2017-12-30T13:16:36.420Z,16.20
2017-12-30T13:19:04.692Z,16.43
2017-12-30T13:21:34.469Z,16.27
2017-12-30T13:24:02.726Z,16.60
2017-12-30T13:26:33.347Z,15.00
2017-12-30T13:29:01.294Z,15.13
2017-12-30T13:31:29.932Z,18.60
2017-12-30T13:33:59.749Z,17.17
2017-12-30T13:36:28.319Z,14.93
2017-12-30T13:38:56.539Z,15.33
2017-12-30T13:41:25.588Z,14.77
2017-12-30T13:43:54.645Z,15.87
2017-12-30T13:46:22.906Z,16.80
2017-12-30T13:48:51.190Z,16.83
2017-12-30T13:51:20.190Z,15.20
2017-12-30T13:53:49.599Z,15.23
2017-12-30T13:56:17.893Z,13.00
2017-12-30T13:58:46.125Z,16.80
2017-12-30T14:01:15.892Z,15.67
2017-12-30T14:03:44.337Z,15.13
2017-12-30T14:06:12.604Z,13.30
2017-12-30T14:08:40.840Z,14.67
2017-12-30T14:11:09.109Z,16.10
2017-12-30T14:13:38.116Z,13.57
2017-12-30T14:16:06.360Z,14.90
2017-12-30T14:18:34.641Z,16.20
2017-12-30T14:21:04.458Z,15.97
2017-12-30T14:23:32.691Z,12.77
2017-12-30T14:26:01.027Z,15.63
2017-12-30T14:28:29.351Z,13.20
2017-12-30T14:30:58.016Z,12.80
2017-12-30T14:33:27.909Z,14.63
2017-12-30T14:35:56.189Z,14.20
2017-12-30T14:38:25.244Z,13.03
2017-12-30T14:40:53.966Z,13.10
2017-12-30T14:43:22.235Z,12.37
2017-12-30T14:45:51.619Z,13.70
2017-12-30T14:48:21.483Z,13.10
2017-12-30T14:50:50.905Z,13.30
2017-12-30T14:53:20.507Z,11.63
2017-12-30T14:55:49.793Z,12.00
2017-12-30T14:58:18.028Z,13.10
2017-12-30T15:00:46.284Z,12.57
2017-12-30T15:03:14.981Z,13.17
2017-12-30T15:05:44.599Z,13.47
2017-12-30T15:08:14.068Z,11.23
2017-12-30T15:10:43.584Z,12.23
2017-12-30T15:13:12.856Z,12.27
2017-12-30T15:15:41.107Z,13.00
2017-12-30T15:18:10.775Z,13.20
2017-12-30T15:20:39.334Z,11.20
2017-12-30T15:23:07.564Z,11.40
2017-12-30T15:25:35.884Z,12.63
2017-12-30T15:28:05.468Z,13.30
2017-12-30T15:30:33.655Z,11.53
2017-12-30T15:33:02.713Z,10.80
2017-12-30T15:35:31.745Z,12.93
2017-12-30T15:38:01.422Z,10.50
2017-12-30T15:40:30.365Z,11.47
2017-12-30T15:42:58.673Z,10.90
2017-12-30T15:45:28.459Z,8.80
2017-12-30T15:47:56.783Z,8.97
2017-12-30T15:50:25.084Z,13.37
2017-12-30T15:52:53.323Z,10.70
2017-12-30T15:55:21.615Z,11.43
2017-12-30T15:57:49.831Z,11.30
2017-12-30T16:00:19.450Z,12.83
2017-12-30T16:02:49.006Z,11.13
2017-12-30T16:05:17.561Z,11.20
2017-12-30T16:07:45.785Z,11.23
2017-12-30T16:10:14.115Z,11.90
2017-12-30T16:12:43.697Z,10.47
2017-12-30T16:15:12.601Z,10.60
2017-12-30T16:17:41.791Z,10.67
2017-12-30T16:20:11.556Z,10.00
2017-12-30T16:22:39.814Z,10.33
2017-12-30T16:25:09.458Z,10.93
2017-12-30T16:27:38.696Z,9.93
2017-12-30T16:30:06.958Z,10.87
2017-12-30T16:32:35.260Z,10.50
2017-12-30T16:35:03.569Z,10.20
2017-12-30T16:37:33.360Z,10.57
2017-12-30T16:40:01.665Z,12.03
2017-12-30T16:42:29.933Z,10.80
2017-12-30T16:44:59.347Z,9.70
2017-12-30T16:47:27.649Z,13.97
2017-12-30T16:49:57.297Z,11.57
2017-12-30T16:52:26.239Z,11.23
2017-12-30T16:54:55.750Z,10.87
2017-12-30T16:57:24.409Z,9.90
2017-12-30T16:59:52.630Z,9.93
2017-12-30T17:02:21.668Z,11.40
2017-12-30T17:04:51.304Z,12.70
2017-12-30T17:07:20.792Z,10.77
2017-12-30T17:09:50.202Z,10.23
2017-12-30T17:12:18.475Z,10.80
2017-12-30T17:14:48.238Z,10.13
2017-12-30T17:17:16.536Z,11.00
2017-12-30T17:19:44.780Z,10.97
2017-12-30T17:22:14.364Z,9.43
2017-12-30T17:24:42.923Z,10.83
2017-12-30T17:27:11.924Z,10.93
2017-12-30T17:29:41.744Z,10.20
2017-12-30T17:32:11.512Z,9.80
2017-12-30T17:34:40.187Z,12.33
2017-12-30T17:37:09.826Z,9.87
2017-12-30T17:39:38.413Z,10.20
2017-12-30T17:42:07.416Z,8.67
2017-12-30T17:44:37.047Z,10.20
2017-12-30T17:47:06.527Z,9.63
2017-12-30T17:49:35.622Z,11.10
2017-12-30T17:52:03.960Z,11.33
2017-12-30T17:54:33.622Z,10.87
2017-12-30T17:57:02.572Z,9.40
2017-12-30T17:59:31.291Z,7.77
2017-12-30T18:02:00.929Z,10.20
2017-12-30T18:04:30.440Z,8.20
2017-12-30T18:06:58.998Z,11.50
2017-12-30T18:09:27.701Z,10.47
2017-12-30T18:11:57.959Z,11.33
2017-12-30T18:14:28.510Z,9.03
2017-12-30T18:16:57.186Z,9.57
2017-12-30T18:19:26.377Z,9.07
2017-12-30T18:21:55.417Z,10.53
2017-12-30T18:24:25.111Z,9.90
2017-12-30T18:26:53.692Z,8.53
2017-12-30T18:29:21.999Z,8.70
2017-12-30T18:31:51.729Z,8.80
2017-12-30T18:34:20.821Z,8.27
2017-12-30T18:36:49.882Z,10.20
2017-12-30T18:39:18.915Z,8.90
2017-12-30T18:41:48.575Z,9.13
2017-12-30T18:44:16.669Z,9.50
2017-12-30T18:46:44.947Z,9.67
2017-12-30T18:49:14.580Z,9.83
2017-12-30T18:51:43.124Z,8.40
2017-12-30T18:54:11.387Z,9.47
2017-12-30T18:56:39.724Z,7.70
2017-12-30T18:59:07.983Z,9.30
2017-12-30T19:01:37.034Z,9.67
2017-12-30T19:04:06.485Z,9.60
2017-12-30T19:06:35.160Z,10.50
2017-12-30T19:09:03.443Z,7.80
2017-12-30T19:11:33.083Z,8.40
2017-12-30T19:14:01.654Z,7.60
2017-12-30T19:16:29.980Z,8.50
2017-12-30T19:18:58.556Z,8.90
2017-12-30T19:21:26.845Z,8.40
2017-12-30T19:23:55.117Z,8.43
2017-12-30T19:26:24.790Z,7.50
2017-12-30T19:28:52.884Z,11.23
2017-12-30T19:31:21.206Z,8.60
2017-12-30T19:33:51.054Z,8.50
2017-12-30T19:36:19.329Z,8.27
2017-12-30T19:38:48.952Z,6.70
2017-12-30T19:41:17.923Z,7.07
2017-12-30T19:43:46.992Z,7.93
2017-12-30T19:46:15.288Z,8.97
2017-12-30T19:48:45.117Z,7.83
2017-12-30T19:51:13.518Z,8.23
2017-12-30T19:53:41.799Z,9.23
2017-12-30T19:56:11.478Z,7.60
2017-12-30T19:58:39.642Z,7.97
2017-12-30T20:01:07.908Z,13.10
2017-12-30T20:03:36.228Z,10.10
2017-12-30T20:06:04.919Z,9.33
2017-12-30T20:08:34.335Z,9.03
2017-12-30T20:11:02.696Z,9.13
2017-12-30T20:13:32.330Z,9.10
2017-12-30T20:16:00.884Z,8.70
2017-12-30T20:18:29.208Z,9.20
2017-12-30T20:20:58.856Z,10.83
2017-12-30T20:23:27.783Z,10.07
2017-12-30T20:25:56.922Z,9.07
2017-12-30T20:28:26.593Z,9.17
2017-12-30T20:30:57.099Z,8.57
2017-12-30T20:33:26.747Z,9.07
2017-12-30T20:35:55.298Z,8.10
2017-12-30T20:38:25.020Z,8.93
2017-12-30T20:40:53.556Z,8.73
2017-12-30T20:43:21.835Z,9.00
2017-12-30T20:45:50.183Z,8.87
2017-12-30T20:48:19.804Z,9.50
2017-12-30T20:50:48.343Z,9.00
2017-12-30T20:53:17.819Z,7.83
2017-12-30T20:55:46.850Z,8.77
2017-12-30T20:58:15.151Z,8.53
2017-12-30T21:00:43.476Z,8.93
2017-12-30T21:03:13.095Z,8.87
2017-12-30T21:05:42.615Z,9.40
2017-12-30T21:08:10.838Z,8.40
2017-12-30T21:10:39.112Z,9.70
2017-12-30T21:13:07.392Z,10.80
2017-12-30T21:15:37.242Z,9.40
2017-12-30T21:18:05.511Z,9.73
2017-12-30T21:20:35.315Z,8.63
2017-12-30T21:23:03.653Z,9.90
2017-12-30T21:25:33.440Z,11.17
2017-12-30T21:28:03.130Z,10.30
2017-12-30T21:30:32.084Z,11.20
2017-12-30T21:33:00.379Z,9.00
2017-12-30T21:35:30.022Z,9.23
2017-12-30T21:37:59.575Z,10.13
2017-12-30T21:40:28.947Z,10.73
2017-12-30T21:42:57.292Z,9.77
2017-12-30T21:45:25.667Z,8.63
2017-12-30T21:47:55.305Z,9.77
2017-12-30T21:50:25.483Z,9.37
2017-12-30T21:52:54.791Z,8.83
2017-12-30T21:55:23.059Z,9.33
2017-12-30T21:57:52.895Z,9.30
2017-12-30T22:00:22.523Z,9.23
2017-12-30T22:02:51.063Z,9.37
2017-12-30T22:05:19.374Z,7.77
2017-12-30T22:07:48.983Z,8.90
2017-12-30T22:10:17.532Z,10.10
2017-12-30T22:12:46.620Z,9.87
2017-12-30T22:15:16.420Z,10.30
2017-12-30T22:17:46.232Z,8.30
2017-12-30T22:20:14.938Z,9.03
2017-12-30T22:22:44.721Z,10.00
2017-12-30T22:25:14.742Z,9.67
2017-12-30T22:27:44.274Z,9.17
2017-12-30T22:30:15.323Z,8.37
2017-12-30T22:32:44.636Z,9.40
2017-12-30T22:35:12.894Z,8.43
2017-12-30T22:37:41.218Z,9.20
2017-12-30T22:40:09.484Z,8.60
2017-12-30T22:42:38.907Z,13.60
2017-12-30T22:45:07.231Z,10.20
2017-12-30T22:47:35.500Z,10.90
2017-12-30T22:50:03.787Z,10.30
2017-12-30T22:53:23.851Z,12.00
2017-12-30T22:55:52.314Z,10.33
2017-12-30T22:58:20.594Z,11.70
2017-12-30T23:00:54.508Z,10.10
2017-12-30T23:03:22.792Z,9.60
2017-12-30T23:05:51.059Z,9.10
2017-12-30T23:08:20.128Z,10.77
2017-12-30T23:10:48.405Z,11.17
2017-12-30T23:13:16.681Z,10.80
2017-12-30T23:15:46.492Z,9.37
2017-12-30T23:18:14.772Z,10.27
2017-12-30T23:20:43.064Z,10.20
2017-12-30T23:23:11.369Z,11.67
2017-12-30T23:25:39.639Z,9.90
2017-12-30T23:28:08.299Z,8.97
2017-12-30T23:30:37.020Z,11.60
2017-12-30T23:33:05.301Z,11.57
2017-12-30T23:35:34.344Z,10.90
2017-12-30T23:38:04.179Z,10.13
2017-12-30T23:40:32.859Z,8.17
2017-12-30T23:43:02.264Z,8.50
2017-12-30T23:45:30.581Z,8.20
2017-12-30T23:47:58.879Z,10.10
2017-12-30T23:50:27.175Z,7.90
2017-12-30T23:52:56.268Z,10.90
2017-12-30T23:55:25.899Z,8.87
2017-12-30T23:57:54.737Z,8.40
